createdAt,value
2022-10-07T00:00:11.362Z,80.71
2022-10-07T00:02:40.815Z,80.40
2022-10-07T00:05:10.343Z,80.66
2022-10-07T00:07:39.166Z,80.60
2022-10-07T00:10:09.306Z,81.06
2022-10-07T00:12:39.429Z,81.19
2022-10-07T00:15:09.891Z,80.39
2022-10-07T00:17:42.147Z,80.08
2022-10-07T00:20:11.429Z,80.75
2022-10-07T00:22:40.296Z,80.93
2022-10-07T00:25:09.981Z,80.47
2022-10-07T00:27:40.122Z,80.71
2022-10-07T00:30:10.904Z,80.75
2022-10-07T00:32:39.719Z,80.87
2022-10-07T00:35:09.506Z,80.38
2022-10-07T00:37:43.187Z,80.12
2022-10-07T00:40:14.726Z,79.37
2022-10-07T00:42:44.866Z,79.75
2022-10-07T00:45:16.661Z,80.05
2022-10-07T00:47:49.567Z,80.32
2022-10-07T00:50:25.586Z,80.22
2022-10-07T00:53:01.447Z,79.46
2022-10-07T00:55:33.024Z,79.74
2022-10-07T00:58:08.135Z,79.40
2022-10-07T01:00:37.671Z,80.06
2022-10-07T01:03:06.749Z,80.27
2022-10-07T01:05:35.451Z,80.13
2022-10-07T01:08:05.286Z,79.49
2022-10-07T01:10:49.513Z,79.55
2022-10-07T01:13:32.582Z,79.67
2022-10-07T01:16:14.098Z,79.05
2022-10-07T01:18:55.256Z,79.15
2022-10-07T01:21:41.019Z,80.02
2022-10-07T01:28:46.837Z,80.67
2022-10-07T01:31:37.418Z,80.66
2022-10-07T01:34:11.842Z,80.57
2022-10-07T01:36:43.116Z,80.84
2022-10-07T01:39:17.965Z,81.12
2022-10-07T01:41:47.559Z,80.90
2022-10-07T01:44:17.744Z,81.28
2022-10-07T01:46:47.941Z,81.17
2022-10-07T01:49:16.953Z,81.07
2022-10-07T01:52:04.816Z,81.37
2022-10-07T01:54:57.680Z,81.15
2022-10-07T01:57:41.579Z,80.89
2022-10-07T02:00:17.924Z,81.33
2022-10-07T02:03:30.605Z,80.73
2022-10-07T02:06:11.737Z,80.96
2022-10-07T02:08:49.002Z,81.22
2022-10-07T02:11:22.983Z,81.35
2022-10-07T02:14:06.306Z,81.27
2022-10-07T02:16:44.006Z,81.29
2022-10-07T02:19:19.908Z,80.55
2022-10-07T02:21:52.414Z,80.42
2022-10-07T02:24:25.007Z,81.05
2022-10-07T02:26:58.259Z,81.20
2022-10-07T02:29:32.340Z,81.17
2022-10-07T02:32:14.759Z,80.40
2022-10-07T02:34:46.697Z,80.20
2022-10-07T02:37:24.183Z,80.60
2022-10-07T02:39:56.015Z,80.53
2022-10-07T02:42:34.876Z,80.58
2022-10-07T02:45:16.762Z,80.68
2022-10-07T02:47:56.041Z,80.47
2022-10-07T02:50:31.636Z,80.82
2022-10-07T02:53:04.470Z,80.60
2022-10-07T02:55:35.266Z,81.05
2022-10-07T02:58:09.429Z,81.33
2022-10-07T03:00:55.814Z,80.93
2022-10-07T03:03:54.796Z,80.54
2022-10-07T03:06:43.461Z,80.70
2022-10-07T03:09:13.087Z,80.49
2022-10-07T03:11:43.234Z,81.27
2022-10-07T03:14:19.107Z,81.32
2022-10-07T03:16:48.225Z,81.16
2022-10-07T03:19:18.734Z,81.59
2022-10-07T03:21:56.960Z,81.22
2022-10-07T03:24:26.683Z,80.58
2022-10-07T03:26:55.613Z,80.60
2022-10-07T03:29:26.190Z,81.37
2022-10-07T03:31:55.556Z,81.47
2022-10-07T03:34:27.447Z,81.05
2022-10-07T03:36:56.912Z,80.70
2022-10-07T03:39:25.742Z,80.74
2022-10-07T03:41:54.477Z,81.24
2022-10-07T03:44:23.177Z,81.18
2022-10-07T03:46:54.182Z,81.01
2022-10-07T03:49:27.658Z,81.08
2022-10-07T03:51:58.759Z,81.05
2022-10-07T03:54:27.545Z,81.36
2022-10-07T03:57:27.705Z,81.08
2022-10-07T03:59:59.919Z,81.03
2022-10-07T04:02:31.903Z,80.48
2022-10-07T04:05:02.187Z,80.98
2022-10-07T04:07:35.016Z,81.37
2022-10-07T04:10:04.941Z,81.41
2022-10-07T04:12:33.784Z,81.52
2022-10-07T04:15:03.234Z,81.76
2022-10-07T04:17:35.080Z,81.55
2022-10-07T04:20:05.882Z,81.91
2022-10-07T04:22:39.095Z,81.74
2022-10-07T04:25:32.881Z,81.91
2022-10-07T04:28:06.897Z,81.77
2022-10-07T04:30:43.879Z,81.63
2022-10-07T04:33:14.913Z,81.40
2022-10-07T04:35:51.747Z,81.34
2022-10-07T04:38:23.307Z,81.21
2022-10-07T04:40:55.084Z,80.93
2022-10-07T04:43:23.750Z,81.56
2022-10-07T04:46:05.653Z,81.43
2022-10-07T04:48:45.752Z,81.56
2022-10-07T04:51:18.607Z,81.62
2022-10-07T04:53:56.912Z,81.94
2022-10-07T04:56:31.920Z,82.02
2022-10-07T04:59:02.472Z,81.43
2022-10-07T05:01:31.639Z,81.43
2022-10-07T05:04:00.816Z,81.45
2022-10-07T05:06:33.621Z,81.53
2022-10-07T05:09:02.862Z,82.32
2022-10-07T05:11:35.353Z,81.49
2022-10-07T05:14:10.079Z,81.76
2022-10-07T05:17:05.032Z,81.81
2022-10-07T05:19:36.405Z,82.27
2022-10-07T05:22:06.889Z,81.98
2022-10-07T05:24:38.577Z,82.05
2022-10-07T05:27:08.891Z,81.73
2022-10-07T05:29:37.831Z,81.76
2022-10-07T05:32:06.606Z,82.00
2022-10-07T05:34:35.727Z,81.59
2022-10-07T05:37:05.783Z,81.67
2022-10-07T05:39:34.504Z,81.98
2022-10-07T05:42:12.287Z,81.98
2022-10-07T05:44:46.096Z,82.22
2022-10-07T05:47:18.072Z,82.71
2022-10-07T05:49:47.064Z,82.94
2022-10-07T05:52:19.642Z,82.50
2022-10-07T05:54:48.432Z,82.15
2022-10-07T05:57:17.481Z,82.18
2022-10-07T05:59:46.396Z,81.95
2022-10-07T06:02:18.915Z,82.07
2022-10-07T06:04:50.155Z,81.98
2022-10-07T06:07:28.998Z,81.96
2022-10-07T06:10:17.724Z,81.71
2022-10-07T06:13:06.233Z,81.47
2022-10-07T06:15:36.433Z,81.27
2022-10-07T06:18:06.677Z,81.58
2022-10-07T06:20:36.067Z,81.14
2022-10-07T06:23:07.404Z,81.17
2022-10-07T06:25:36.327Z,81.48
2022-10-07T06:28:05.077Z,81.58
2022-10-07T06:30:33.872Z,81.50
2022-10-07T06:33:04.049Z,81.54
2022-10-07T06:35:33.951Z,81.45
2022-10-07T06:38:02.677Z,81.46
2022-10-07T06:40:33.558Z,81.35
2022-10-07T06:43:02.347Z,81.91
2022-10-07T06:45:37.133Z,81.74
2022-10-07T06:48:06.203Z,81.75
2022-10-07T06:50:34.913Z,81.89
2022-10-07T06:53:04.131Z,82.34
2022-10-07T06:55:40.784Z,82.40
2022-10-07T06:58:11.867Z,82.60
2022-10-07T07:00:42.239Z,83.04
2022-10-07T07:03:12.383Z,83.42
2022-10-07T07:05:45.308Z,83.15
2022-10-07T07:08:19.179Z,83.41
2022-10-07T07:10:49.715Z,83.47
2022-10-07T07:13:19.527Z,84.13
2022-10-07T07:15:57.017Z,84.46
2022-10-07T07:18:27.433Z,84.77
2022-10-07T07:20:56.135Z,84.64
2022-10-07T07:23:26.276Z,85.08
2022-10-07T07:25:56.358Z,85.61
2022-10-07T07:28:25.108Z,85.66
2022-10-07T07:30:53.898Z,85.97
2022-10-07T07:33:22.621Z,86.51
2022-10-07T07:35:51.400Z,86.56
2022-10-07T07:38:24.766Z,86.61
2022-10-07T07:40:56.730Z,86.92
2022-10-07T07:43:25.423Z,87.54
2022-10-07T07:45:55.516Z,87.82
2022-10-07T07:48:24.455Z,87.94
2022-10-07T07:50:53.282Z,88.78
2022-10-07T07:53:22.937Z,89.17
2022-10-07T07:56:00.221Z,89.32
2022-10-07T07:58:30.098Z,89.88
2022-10-07T08:01:01.382Z,90.09
2022-10-07T08:03:31.562Z,90.43
2022-10-07T08:06:03.323Z,90.93
2022-10-07T08:08:34.280Z,91.34
2022-10-07T08:11:10.767Z,92.40
2022-10-07T08:13:41.360Z,92.63
2022-10-07T08:16:14.543Z,93.07
2022-10-07T08:18:46.585Z,93.35
2022-10-07T08:21:17.769Z,93.95
2022-10-07T08:23:52.848Z,93.93
2022-10-07T08:26:23.461Z,94.65
2022-10-07T08:28:52.966Z,94.69
2022-10-07T08:31:23.507Z,95.10
2022-10-07T08:33:52.537Z,95.29
2022-10-07T08:36:24.176Z,95.25
2022-10-07T08:38:55.034Z,95.67
2022-10-07T08:41:42.854Z,95.57
2022-10-07T08:44:29.215Z,94.24
2022-10-07T08:47:12.244Z,92.86
2022-10-07T08:49:56.846Z,91.53
2022-10-07T08:52:36.746Z,90.33
2022-10-07T08:55:17.979Z,88.34
2022-10-07T08:58:19.789Z,87.25
2022-10-07T09:00:56.574Z,87.14
2022-10-07T09:03:42.202Z,85.61
2022-10-07T09:06:16.817Z,84.43
2022-10-07T09:08:53.658Z,82.06
2022-10-07T09:11:26.015Z,81.39
2022-10-07T09:14:05.133Z,80.46
2022-10-07T09:16:41.889Z,79.06
2022-10-07T09:19:21.940Z,78.36
2022-10-07T09:21:52.173Z,76.85
2022-10-07T09:24:24.880Z,77.34
2022-10-07T09:26:57.097Z,75.68
2022-10-07T09:29:31.172Z,75.50
2022-10-07T09:32:00.250Z,73.34
2022-10-07T09:34:31.834Z,72.70
2022-10-07T09:37:15.921Z,73.70
2022-10-07T09:39:46.882Z,71.63
2022-10-07T09:42:32.605Z,72.87
2022-10-07T09:45:25.448Z,67.81
2022-10-07T09:48:27.751Z,69.00
2022-10-07T09:51:16.528Z,68.92
2022-10-07T09:54:02.072Z,69.63
2022-10-07T09:56:41.487Z,69.08
2022-10-07T09:59:21.983Z,67.31
2022-10-07T10:01:56.006Z,67.64
2022-10-07T10:04:32.766Z,67.47
2022-10-07T10:07:07.433Z,66.24
2022-10-07T10:09:36.403Z,66.98
2022-10-07T10:12:16.611Z,67.84
2022-10-07T10:14:51.134Z,67.85
2022-10-07T10:17:34.893Z,69.66
2022-10-07T10:20:39.768Z,71.33
2022-10-07T10:23:30.836Z,70.85
2022-10-07T10:26:33.692Z,72.05
2022-10-07T10:29:25.434Z,73.48
2022-10-07T10:32:34.184Z,72.75
2022-10-07T10:35:12.961Z,71.87
2022-10-07T10:38:14.727Z,70.67
2022-10-07T10:40:55.390Z,71.49
2022-10-07T10:43:35.574Z,70.58
2022-10-07T10:46:30.756Z,65.50
2022-10-07T10:49:21.096Z,65.53
2022-10-07T10:52:28.057Z,65.94
2022-10-07T10:55:24.346Z,67.28
2022-10-07T10:58:07.956Z,66.46
2022-10-07T11:00:57.632Z,64.67
2022-10-07T11:03:59.076Z,62.52
2022-10-07T11:06:33.308Z,63.94
2022-10-07T11:09:03.829Z,65.86
2022-10-07T11:11:49.220Z,67.28
2022-10-07T11:14:24.007Z,64.03
2022-10-07T11:16:59.324Z,66.20
2022-10-07T11:19:33.337Z,67.69
2022-10-07T11:22:05.574Z,69.69
2022-10-07T11:24:42.875Z,71.13
2022-10-07T11:27:17.900Z,71.13
2022-10-07T11:29:56.389Z,72.26
2022-10-07T11:32:32.437Z,70.15
2022-10-07T11:35:27.133Z,72.06
2022-10-07T11:38:04.688Z,72.19
2022-10-07T11:40:42.166Z,73.74
2022-10-07T11:43:22.950Z,72.59
2022-10-07T11:45:57.896Z,72.45
2022-10-07T11:48:37.743Z,74.04
2022-10-07T11:51:11.180Z,70.93
2022-10-07T11:53:42.135Z,72.52
2022-10-07T11:56:23.220Z,71.41
2022-10-07T11:59:02.147Z,73.46
2022-10-07T12:01:55.368Z,74.28
2022-10-07T12:04:47.532Z,71.74
2022-10-07T12:07:58.998Z,72.89
2022-10-07T12:10:34.396Z,68.65
2022-10-07T12:13:41.030Z,69.93
2022-10-07T12:17:02.979Z,66.68
2022-10-07T12:19:33.649Z,66.59
2022-10-07T12:22:19.565Z,68.97
2022-10-07T12:25:32.676Z,70.09
2022-10-07T12:28:02.962Z,69.98
2022-10-07T12:30:51.896Z,68.45
2022-10-07T12:33:35.669Z,68.15
2022-10-07T12:36:30.178Z,70.37
2022-10-07T12:39:40.304Z,71.15
2022-10-07T12:42:16.723Z,72.09
2022-10-07T12:44:51.447Z,72.47
2022-10-07T12:47:29.843Z,73.07
2022-10-07T12:50:05.059Z,72.15
2022-10-07T12:57:04.061Z,72.34
2022-10-07T12:59:53.417Z,72.00
2022-10-07T13:03:17.435Z,72.39
2022-10-07T13:06:40.372Z,73.57
2022-10-07T13:10:00.642Z,71.64
2022-10-07T13:12:48.875Z,71.89
2022-10-07T13:15:41.660Z,72.24
2022-10-07T13:18:45.088Z,72.58
2022-10-07T13:21:28.723Z,72.10
2022-10-07T13:23:58.685Z,72.69
2022-10-07T13:27:01.266Z,72.88
2022-10-07T13:30:40.492Z,73.01
2022-10-07T13:33:23.981Z,73.32
2022-10-07T13:37:08.243Z,72.88
2022-10-07T13:39:37.065Z,72.92
2022-10-07T13:42:06.287Z,73.01
2022-10-07T13:46:02.485Z,73.80
2022-10-07T13:48:40.744Z,73.38
2022-10-07T13:51:52.916Z,73.58
2022-10-07T13:54:28.041Z,74.35
2022-10-07T14:01:12.243Z,74.75
2022-10-07T14:04:52.189Z,74.11
2022-10-07T14:07:24.193Z,74.14
2022-10-07T14:10:10.085Z,74.66
2022-10-07T14:12:44.832Z,74.17
2022-10-07T14:15:19.844Z,74.14
2022-10-07T14:17:54.832Z,74.26
2022-10-07T14:20:32.222Z,74.25
2022-10-07T14:28:05.089Z,74.12
2022-10-07T14:31:00.864Z,73.85
2022-10-07T14:34:00.973Z,74.75
2022-10-07T14:37:09.412Z,75.38
2022-10-07T14:40:19.830Z,75.96
2022-10-07T14:42:54.771Z,76.30
2022-10-07T14:45:24.378Z,76.21
2022-10-07T14:47:55.475Z,76.44
2022-10-07T14:50:25.009Z,76.66
2022-10-07T14:52:56.068Z,77.15
2022-10-07T14:55:28.497Z,77.39
2022-10-07T14:57:57.486Z,77.37
2022-10-07T15:00:32.939Z,77.69
2022-10-07T15:03:06.374Z,78.10
2022-10-07T15:05:35.295Z,78.68
2022-10-07T15:08:05.494Z,78.87
2022-10-07T15:10:34.232Z,78.99
2022-10-07T15:13:04.154Z,79.05
2022-10-07T15:15:33.500Z,79.80
2022-10-07T15:18:02.192Z,80.08
2022-10-07T15:20:31.004Z,80.55
2022-10-07T15:23:00.576Z,80.86
2022-10-07T15:25:36.983Z,81.12
2022-10-07T15:28:05.888Z,81.34
2022-10-07T15:30:39.191Z,81.99
2022-10-07T15:33:08.719Z,81.95
2022-10-07T15:35:37.426Z,82.28
2022-10-07T15:38:06.634Z,82.42
2022-10-07T15:40:57.966Z,82.85
2022-10-07T15:43:32.123Z,83.33
2022-10-07T15:46:02.950Z,83.10
2022-10-07T15:48:31.826Z,83.15
2022-10-07T15:51:00.829Z,83.03
2022-10-07T15:53:31.107Z,82.86
2022-10-07T15:56:01.640Z,82.95
2022-10-07T15:58:31.621Z,82.91
2022-10-07T16:01:02.175Z,82.36
2022-10-07T16:03:56.769Z,82.81
2022-10-07T16:06:31.349Z,83.13
2022-10-07T16:09:02.604Z,82.97
2022-10-07T16:11:35.709Z,83.48
2022-10-07T16:14:04.963Z,83.67
2022-10-07T16:16:34.960Z,84.31
2022-10-07T16:19:04.999Z,84.14
2022-10-07T16:21:36.597Z,84.39
2022-10-07T16:24:08.911Z,85.02
2022-10-07T16:26:43.771Z,85.18
2022-10-07T16:29:34.996Z,85.24
2022-10-07T16:32:05.137Z,85.47
2022-10-07T16:34:36.337Z,85.69
2022-10-07T16:37:06.048Z,85.85
2022-10-07T16:39:35.044Z,86.30
2022-10-07T16:42:05.369Z,86.59
2022-10-07T16:44:34.104Z,86.89
2022-10-07T16:47:30.441Z,86.87
2022-10-07T16:49:59.637Z,86.85
2022-10-07T16:52:28.326Z,86.67
2022-10-07T16:54:57.142Z,86.87
2022-10-07T16:57:27.531Z,87.33
2022-10-07T17:00:04.230Z,87.71
2022-10-07T17:03:01.036Z,87.44
2022-10-07T17:05:57.610Z,87.35
2022-10-07T17:08:42.772Z,87.24
2022-10-07T17:11:29.861Z,87.34
2022-10-07T17:14:12.176Z,87.34
2022-10-07T17:16:44.876Z,87.73
2022-10-07T17:19:25.353Z,87.83
2022-10-07T17:21:57.338Z,87.78
2022-10-07T17:24:26.960Z,87.47
2022-10-07T17:26:58.821Z,87.61
2022-10-07T17:29:56.871Z,87.77
2022-10-07T17:32:42.826Z,88.09
2022-10-07T17:36:32.296Z,88.30
2022-10-07T17:39:08.066Z,88.30
2022-10-07T17:41:40.161Z,88.21
2022-10-07T17:44:13.515Z,87.81
2022-10-07T17:46:44.907Z,87.96
2022-10-07T17:49:17.886Z,88.51
2022-10-07T17:52:05.893Z,87.83
2022-10-07T17:54:36.479Z,87.94
2022-10-07T17:57:06.541Z,87.95
2022-10-07T17:59:38.321Z,87.77
2022-10-07T18:02:16.392Z,87.89
2022-10-07T18:04:47.785Z,88.98
2022-10-07T18:07:17.885Z,88.96
2022-10-07T18:09:50.297Z,88.49
2022-10-07T18:12:39.563Z,88.07
2022-10-07T18:15:25.490Z,87.62
2022-10-07T18:18:05.292Z,88.07
2022-10-07T18:20:43.359Z,88.25
2022-10-07T18:23:17.629Z,88.50
2022-10-07T18:26:02.611Z,88.35
2022-10-07T18:28:35.932Z,88.15
2022-10-07T18:35:36.725Z,87.96
2022-10-07T18:38:27.203Z,88.34
2022-10-07T18:41:03.258Z,87.82
2022-10-07T18:43:33.300Z,87.58
2022-10-07T18:46:05.701Z,87.35
2022-10-07T18:48:38.394Z,87.26
2022-10-07T18:51:10.045Z,87.51
2022-10-07T18:53:46.917Z,87.27
2022-10-07T18:57:11.514Z,87.11
2022-10-07T18:59:21.027Z,87.36
2022-10-07T19:01:51.680Z,87.26
2022-10-07T19:04:57.843Z,87.14
2022-10-07T19:10:43.030Z,86.24
2022-10-07T19:13:33.938Z,86.29
2022-10-07T19:16:39.542Z,85.94
2022-10-07T19:22:59.002Z,86.01
2022-10-07T19:25:52.931Z,85.75
2022-10-07T19:28:53.150Z,86.07
2022-10-07T19:31:26.583Z,85.82
2022-10-07T19:34:05.581Z,85.49
2022-10-07T19:36:38.050Z,85.07
2022-10-07T19:39:12.009Z,85.13
2022-10-07T19:41:43.444Z,85.38
2022-10-07T19:44:13.601Z,85.35
2022-10-07T19:47:01.652Z,85.27
2022-10-07T19:49:30.643Z,85.57
2022-10-07T19:52:44.125Z,85.20
2022-10-07T19:55:14.927Z,85.26
2022-10-07T19:57:57.950Z,84.94
2022-10-07T20:00:29.931Z,85.47
2022-10-07T20:02:59.358Z,85.40
2022-10-07T20:05:31.836Z,85.45
2022-10-07T20:08:14.413Z,85.13
2022-10-07T20:10:44.807Z,84.95
2022-10-07T20:13:14.671Z,84.93
2022-10-07T20:15:43.814Z,85.11
2022-10-07T20:18:15.811Z,85.42
2022-10-07T20:21:06.758Z,85.65
2022-10-07T20:23:40.500Z,85.60
2022-10-07T20:26:15.200Z,85.53
2022-10-07T20:28:44.334Z,85.33
2022-10-07T20:31:16.652Z,85.28
2022-10-07T20:34:20.243Z,85.34
2022-10-07T20:45:26.363Z,85.55
2022-10-07T20:53:44.862Z,85.51
2022-10-07T20:56:20.364Z,85.69
2022-10-07T21:20:36.173Z,85.37
2022-10-07T21:27:55.846Z,85.54
2022-10-07T21:35:19.641Z,86.03
2022-10-07T21:37:51.352Z,85.83
2022-10-07T21:41:43.329Z,85.54
2022-10-07T21:54:08.350Z,85.63
2022-10-07T22:35:48.243Z,85.00
2022-10-07T22:38:27.027Z,85.08
2022-10-07T22:41:02.800Z,84.98
2022-10-07T22:44:01.782Z,84.68
2022-10-07T22:50:42.588Z,84.45
2022-10-07T23:07:06.012Z,83.99
2022-10-07T23:09:36.586Z,84.06
2022-10-07T23:12:43.544Z,84.14
2022-10-07T23:15:16.001Z,84.47
2022-10-07T23:17:46.579Z,84.17
2022-10-07T23:20:31.883Z,84.25
2022-10-07T23:24:20.934Z,84.82
2022-10-07T23:27:00.863Z,84.40
2022-10-07T23:29:32.851Z,84.87
2022-10-07T23:32:19.295Z,84.67
2022-10-07T23:34:49.486Z,84.59
2022-10-07T23:37:19.749Z,85.28
2022-10-07T23:39:52.489Z,85.15
2022-10-07T23:42:25.552Z,85.20
2022-10-07T23:44:56.480Z,84.68
2022-10-07T23:47:26.539Z,85.07
2022-10-07T23:50:07.517Z,84.62
2022-10-07T23:52:38.710Z,84.72
2022-10-07T23:55:13.265Z,84.37
2022-10-07T23:57:42.589Z,84.25
